AGGH/HIR METAR and TAF weather

Enter ICAO airport designator
Station Type Date Time Source
AGGH METAR 2020/06/05 12:00 UTC NOAA

AGGH 051200Z 14003KT 9999 FEW015 SCT300 25/24 Q1010


Station Type Date Time Source
AGGH Decoded METAR 2020/06/05 12:00 UTC NOAA

Honiara / Henderson, Solomon Islands (AGGH) 09-25S 160-03E 9M
Jun 05, 2020 - 08:00 AM EDT / 2020.06.05 1200 UTC
Wind: from the SE (140 degrees) at 3 MPH (3 KT):0
Visibility: greater than 7 mile(s):0
Sky conditions: partly cloudy
Temperature: 77 F (25 C)
Dew Point: 75 F (24 C)
Relative Humidity: 94%
Pressure (altimeter): 29.83 in. Hg (1010 hPa)
ob: AGGH 051200Z 14003KT 9999 FEW015 SCT300 25/24 Q1010
cycle: 12

Station Type Date Time Source
AGGH TAF 2020/06/05 12:24 UTC NOAA

TAF TAF AGGH 051120Z 0512/0612 VRB03KT 9999 SCT017 PROB30 INTER 0517/0600 5000 TSSH BKN016 FEW017CB T 25 24 24 26 Q 1011 1009 1008 1010

Example: see airport list